Skookumchuck, Canada
Current Conditions -  °F | °C
As of 1:00 PM on Wednesday 28 Jan 2015 (Local Time) from CYXC Reporting Station
Few Clouds Few Clouds  
Wind Chill: 36°   Ceiling: Unl
Heat Index: 36°   Visibility: 25mi
Dew Point: 30°   Wind: 2mph
Humidity: 81%   Direction: 340°NNW
Pressure: 30.31"   Gusts: NA
Location:  49.9°N, 115.77°W
Report Text: CYXC 282000Z 34002KT 25SM FEW045 02/M01 A3031 RMK SC1 SLP297
Loading
Personal Weather Stations






























Interactive Weather Map New forecast layout! Learn more

10-Day Weather Forecast

Advertisements
Track Severe Weather on mobile